Time;durP1;ratioP1;P1;durP2;ratioP2;P2;SDS_P1;SDS_P2;PMS_P1;PMS_P2;Temp;Humidity;BMP_temperature;BMP_pressure;BME280_temperature;BME280_humidity;BME280_pressure;Samples;Min_cycle;Max_cycle;Signal;HPM_P1;HPM_P2
2021/03/15 00:01:09;;;;;;;9.40;5.30;;;6.10;99.90;;;;;;4870064;29;20626;-77
2021/03/15 00:03:37;;;;;;;11.30;5.45;;;6.20;99.90;;;;;;4856440;29;20219;-77
2021/03/15 00:06:05;;;;;;;10.98;5.13;;;6.20;99.90;;;;;;4842985;29;20192;-77
2021/03/15 00:08:32;;;;;;;8.95;5.82;;;6.10;99.90;;;;;;4868854;29;20270;-77
2021/03/15 00:11:00;;;;;;;8.25;5.07;;;6.20;99.90;;;;;;4873472;29;20207;-77
2021/03/15 00:13:27;;;;;;;11.90;5.53;;;6.20;99.90;;;;;;4875429;29;20628;-77
2021/03/15 00:15:57;;;;;;;12.68;5.50;;;6.20;99.90;;;;;;4875050;29;20207;-77
2021/03/15 00:18:24;;;;;;;12.32;5.60;;;6.20;99.90;;;;;;4859707;29;20230;-77
2021/03/15 00:20:51;;;;;;;12.10;6.38;;;6.20;99.90;;;;;;4876552;29;20186;-77
2021/03/15 00:23:17;;;;;;;6.75;5.25;;;6.20;99.90;;;;;;4864867;29;20294;-77
2021/03/15 00:25:44;;;;;;;12.45;6.80;;;6.20;99.90;;;;;;4876014;29;20215;-77
2021/03/15 00:28:11;;;;;;;9.60;5.43;;;6.20;99.90;;;;;;4862234;29;20231;-77
2021/03/15 00:30:38;;;;;;;13.68;6.07;;;6.10;99.90;;;;;;4869185;29;20301;-77
2021/03/15 00:33:05;;;;;;;11.23;5.63;;;6.20;99.90;;;;;;4866553;29;20219;-77
2021/03/15 00:35:33;;;;;;;8.13;5.75;;;6.10;99.90;;;;;;4841151;29;20253;-77
2021/03/15 00:38:00;;;;;;;6.85;5.38;;;6.10;99.90;;;;;;4856436;29;20219;-77
2021/03/15 00:40:26;;;;;;;10.52;5.40;;;6.20;99.90;;;;;;4865615;29;20262;-77
2021/03/15 00:42:54;;;;;;;12.60;6.60;;;6.10;99.90;;;;;;4857642;29;20234;-77
2021/03/15 00:45:23;;;;;;;14.82;6.10;;;6.20;99.90;;;;;;4842198;29;20221;-77
2021/03/15 00:47:50;;;;;;;9.75;5.00;;;6.20;99.90;;;;;;4870954;29;20234;-78
2021/03/15 00:50:32;;;;;;;6.88;5.40;;;6.20;99.90;;;;;;4872717;29;20221;-78
2021/03/15 00:53:02;;;;;;;10.48;5.07;;;6.20;99.90;;;;;;4871343;29;20286;-78
2021/03/15 00:55:28;;;;;;;8.30;5.05;;;6.20;99.90;;;;;;4864481;29;20203;-77
2021/03/15 00:57:55;;;;;;;9.02;4.57;;;6.20;99.90;;;;;;4873417;29;20230;-77
2021/03/15 01:00:34;;;;;;;7.80;4.72;;;6.20;99.90;;;;;;4867626;29;20742;-78
2021/03/15 01:03:13;;;;;;;8.65;4.57;;;6.20;99.90;;;;;;4865802;29;20691;-78
2021/03/15 01:05:51;;;;;;;8.68;5.10;;;6.10;99.90;;;;;;4859968;29;20769;-78
2021/03/15 01:08:34;;;;;;;8.02;4.90;;;6.10;99.90;;;;;;4873388;29;20226;-78
2021/03/15 01:11:04;;;;;;;8.50;4.50;;;6.10;99.90;;;;;;4871310;29;20684;-77
2021/03/15 01:13:31;;;;;;;10.73;5.00;;;6.10;99.90;;;;;;4864294;29;20698;-78
2021/03/15 01:15:58;;;;;;;12.75;5.50;;;6.10;99.90;;;;;;4852987;29;20693;-78
2021/03/15 01:18:27;;;;;;;8.73;4.03;;;6.10;99.90;;;;;;4869835;29;20314;-78
2021/03/15 01:20:53;;;;;;;9.82;4.97;;;6.10;99.90;;;;;;4862165;29;20281;-78
2021/03/15 01:23:20;;;;;;;8.82;5.03;;;6.20;99.90;;;;;;4858264;29;20257;-79
2021/03/15 01:25:47;;;;;;;7.95;5.10;;;6.20;99.90;;;;;;4875482;29;20258;-78
2021/03/15 01:28:16;;;;;;;9.98;4.82;;;6.10;99.90;;;;;;4864125;29;20285;-79
2021/03/15 01:30:44;;;;;;;10.85;4.72;;;6.10;99.90;;;;;;4861538;29;20562;-79
2021/03/15 01:33:12;;;;;;;11.10;4.85;;;6.10;99.90;;;;;;4864812;29;20254;-79
2021/03/15 01:35:38;;;;;;;6.18;4.25;;;6.10;99.90;;;;;;4868909;29;20210;-79
2021/03/15 01:38:06;;;;;;;12.00;4.20;;;6.10;99.90;;;;;;4868883;29;20581;-79
2021/03/15 01:40:36;;;;;;;6.07;4.40;;;6.00;99.90;;;;;;4873589;29;20686;-79
2021/03/15 01:43:04;;;;;;;7.50;3.90;;;6.10;99.90;;;;;;4863163;29;20314;-79
2021/03/15 01:45:31;;;;;;;7.57;3.47;;;6.00;99.90;;;;;;4856944;29;20234;-78
2021/03/15 01:47:59;;;;;;;6.65;3.47;;;6.10;99.90;;;;;;4866720;29;20218;-78
2021/03/15 01:50:26;;;;;;;5.05;3.28;;;6.00;99.90;;;;;;4856908;29;20685;-78
2021/03/15 01:52:54;;;;;;;5.13;3.00;;;6.00;99.90;;;;;;4856766;29;20347;-78
2021/03/15 01:55:22;;;;;;;5.10;2.13;;;5.90;99.90;;;;;;4857057;29;20286;-78
2021/03/15 01:57:49;;;;;;;4.25;1.75;;;5.90;99.90;;;;;;4856538;29;20239;-78
2021/03/15 02:00:18;;;;;;;4.18;1.73;;;5.90;99.90;;;;;;4858790;29;20247;-79
2021/03/15 02:02:50;;;;;;;5.40;2.10;;;5.90;99.90;;;;;;4864375;29;20306;-78
2021/03/15 02:05:17;;;;;;;3.55;1.80;;;5.90;99.90;;;;;;4853284;29;20218;-78
2021/03/15 02:07:43;;;;;;;5.13;2.03;;;5.80;99.90;;;;;;4844817;29;20226;-78
2021/03/15 02:10:10;;;;;;;2.85;1.90;;;5.80;99.90;;;;;;4839516;29;20718;-78
2021/03/15 02:12:55;;;;;;;3.88;2.08;;;5.80;99.90;;;;;;4865650;29;20211;-78
2021/03/15 02:15:37;;;;;;;2.10;1.27;;;5.80;99.90;;;;;;4857519;29;20622;-78
2021/03/15 02:18:27;;;;;;;3.25;1.50;;;5.80;99.90;;;;;;4873144;29;20229;-78
2021/03/15 02:21:24;;;;;;;2.42;1.38;;;5.90;99.90;;;;;;4859002;29;20202;-78
2021/03/15 02:23:57;;;;;;;1.67;1.20;;;5.80;99.90;;;;;;4865122;29;20716;-78
2021/03/15 02:26:37;;;;;;;1.10;0.90;;;5.80;99.90;;;;;;4867400;29;20672;-79
2021/03/15 02:29:31;;;;;;;3.53;1.15;;;5.80;99.90;;;;;;4864912;29;20221;-78
2021/03/15 02:32:16;;;;;;;2.00;1.23;;;5.80;99.90;;;;;;4865819;29;20290;-79
2021/03/15 02:35:14;;;;;;;1.20;1.10;;;5.80;99.90;;;;;;4867590;29;20222;-78
2021/03/15 02:38:12;;;;;;;1.73;1.00;;;5.80;99.90;;;;;;4857916;29;20233;-78
2021/03/15 02:40:50;;;;;;;2.42;1.15;;;5.80;99.90;;;;;;4858230;29;20194;-78
2021/03/15 02:43:29;;;;;;;1.45;0.73;;;5.80;99.90;;;;;;4861649;29;20226;-79
2021/03/15 02:46:20;;;;;;;4.00;1.00;;;5.80;99.90;;;;;;4855909;29;20214;-79
2021/03/15 02:48:51;;;;;;;1.75;0.80;;;5.80;99.90;;;;;;4839335;29;20223;-78
2021/03/15 02:51:23;;;;;;;1.40;0.80;;;5.80;99.90;;;;;;4864545;29;20655;-78
2021/03/15 02:53:52;;;;;;;1.95;0.80;;;5.80;99.90;;;;;;4871712;29;20215;-78
2021/03/15 02:56:21;;;;;;;1.20;0.70;;;5.80;99.90;;;;;;4860909;29;20698;-78
2021/03/15 02:58:53;;;;;;;1.25;0.90;;;5.80;99.90;;;;;;4864421;29;20698;-78
2021/03/15 03:01:22;;;;;;;2.15;0.80;;;5.80;99.90;;;;;;4859122;29;20654;-78
2021/03/15 03:03:52;;;;;;;1.25;1.15;;;5.80;99.90;;;;;;4866377;29;20712;-79
2021/03/15 03:06:21;;;;;;;1.92;0.80;;;5.80;99.90;;;;;;4869022;29;20191;-79
2021/03/15 03:08:50;;;;;;;1.25;0.90;;;5.80;99.90;;;;;;4862507;29;20777;-78
2021/03/15 03:11:18;;;;;;;2.35;1.02;;;5.80;99.90;;;;;;4857779;29;20298;-79
2021/03/15 03:13:45;;;;;;;0.85;0.85;;;5.90;99.90;;;;;;4859615;29;20284;-78
2021/03/15 03:16:12;;;;;;;2.28;1.10;;;5.90;99.90;;;;;;4858867;29;20195;-78
2021/03/15 03:18:40;;;;;;;2.03;1.92;;;5.90;99.90;;;;;;4860353;29;20216;-78
2021/03/15 03:21:09;;;;;;;2.25;1.45;;;5.90;99.90;;;;;;4858488;29;20269;-79
2021/03/15 03:23:40;;;;;;;1.38;1.20;;;5.90;99.90;;;;;;4860700;29;20336;-78
2021/03/15 03:26:07;;;;;;;2.35;1.35;;;5.90;99.90;;;;;;4862831;29;20189;-79
2021/03/15 03:28:36;;;;;;;2.10;1.38;;;5.90;99.90;;;;;;4870856;29;20223;-78
2021/03/15 03:31:05;;;;;;;2.83;1.42;;;5.90;99.90;;;;;;4852276;29;20250;-79
2021/03/15 03:33:32;;;;;;;2.33;1.58;;;5.90;99.90;;;;;;4865274;29;20242;-78
2021/03/15 03:35:58;;;;;;;1.98;1.38;;;6.00;99.90;;;;;;4860320;29;20206;-78
2021/03/15 03:38:39;;;;;;;2.88;1.60;;;6.00;99.90;;;;;;4861334;29;20625;-78
2021/03/15 03:41:06;;;;;;;3.15;1.95;;;6.00;99.90;;;;;;4878870;29;20218;-78
2021/03/15 03:43:32;;;;;;;3.25;1.73;;;6.00;99.90;;;;;;4864502;29;20219;-78
2021/03/15 03:46:02;;;;;;;2.78;2.20;;;6.00;99.90;;;;;;4868061;29;20215;-78
2021/03/15 03:48:30;;;;;;;2.95;2.45;;;6.10;99.90;;;;;;4867913;29;20274;-78
2021/03/15 03:50:58;;;;;;;3.50;2.72;;;6.10;99.90;;;;;;4871243;29;20239;-78
2021/03/15 03:53:58;;;;;;;4.55;3.10;;;6.10;99.90;;;;;;4861681;29;20230;-78
2021/03/15 03:56:36;;;;;;;4.00;3.53;;;6.00;99.90;;;;;;4861368;29;20187;-78
2021/03/15 03:59:04;;;;;;;4.45;4.05;;;6.10;99.90;;;;;;4871719;29;20229;-78
2021/03/15 04:01:43;;;;;;;5.65;4.60;;;6.10;99.90;;;;;;4873418;29;20213;-78
2021/03/15 04:04:15;;;;;;;7.22;4.70;;;6.20;99.90;;;;;;4860301;29;20701;-78
2021/03/15 04:06:44;;;;;;;8.20;5.63;;;6.20;99.90;;;;;;4875305;29;20290;-78
2021/03/15 04:09:16;;;;;;;8.40;6.70;;;6.20;99.90;;;;;;4872164;29;20290;-78
2021/03/15 04:11:47;;;;;;;6.95;6.05;;;6.20;99.90;;;;;;4861342;29;20267;-78
2021/03/15 04:14:19;;;;;;;8.27;6.93;;;6.20;99.90;;;;;;4865859;29;20214;-78
2021/03/15 04:16:48;;;;;;;7.25;6.35;;;6.30;99.90;;;;;;4862571;29;20250;-78
2021/03/15 04:19:26;;;;;;;8.02;6.13;;;6.30;99.90;;;;;;4863882;29;20198;-78
2021/03/15 04:22:06;;;;;;;9.30;7.00;;;6.20;99.90;;;;;;4852975;29;20230;-78
2021/03/15 04:24:36;;;;;;;9.32;8.00;;;6.20;99.90;;;;;;4873274;29;20210;-77
2021/03/15 04:27:04;;;;;;;10.77;7.55;;;6.30;99.90;;;;;;4858710;29;20285;-78
2021/03/15 04:29:32;;;;;;;11.43;7.47;;;6.30;99.90;;;;;;4864680;29;20184;-78
2021/03/15 04:32:01;;;;;;;10.77;8.43;;;6.30;99.90;;;;;;4858361;29;20242;-78
2021/03/15 04:34:31;;;;;;;10.23;8.05;;;6.40;99.90;;;;;;4871440;29;20226;-78
2021/03/15 04:36:59;;;;;;;8.15;7.28;;;6.30;99.90;;;;;;4845098;29;20322;-78
2021/03/15 04:39:28;;;;;;;10.43;7.25;;;6.30;99.90;;;;;;4859431;29;20278;-78
2021/03/15 04:42:00;;;;;;;11.40;7.53;;;6.30;99.90;;;;;;4873834;29;20290;-77
2021/03/15 04:44:27;;;;;;;11.45;8.85;;;6.30;99.90;;;;;;4872266;29;20745;-77
2021/03/15 04:46:54;;;;;;;16.10;9.48;;;6.30;99.90;;;;;;4850405;29;20254;-77
2021/03/15 04:49:22;;;;;;;13.88;8.85;;;6.30;99.90;;;;;;4869560;29;20234;-77
2021/03/15 04:51:52;;;;;;;12.43;8.60;;;6.30;99.90;;;;;;4856752;29;20231;-77
2021/03/15 04:54:18;;;;;;;15.88;9.90;;;6.30;99.90;;;;;;4869738;29;20285;-77
2021/03/15 04:56:49;;;;;;;13.07;9.00;;;6.30;99.90;;;;;;4872602;29;20574;-77
2021/03/15 04:59:20;;;;;;;13.00;9.25;;;6.30;99.90;;;;;;4863637;29;20689;-78
2021/03/15 05:01:48;;;;;;;13.25;10.23;;;6.30;99.90;;;;;;4867044;29;20282;-78
2021/03/15 05:04:18;;;;;;;15.63;10.05;;;6.30;99.90;;;;;;4857966;29;20227;-78
2021/03/15 05:06:46;;;;;;;15.07;10.60;;;6.30;99.90;;;;;;4842112;29;20283;-78
2021/03/15 05:09:14;;;;;;;13.43;9.07;;;6.30;99.90;;;;;;4847731;29;20199;-78
2021/03/15 05:11:42;;;;;;;13.73;10.35;;;6.30;99.90;;;;;;4857200;29;20701;-78
2021/03/15 05:14:11;;;;;;;18.67;9.55;;;6.20;99.90;;;;;;4859177;29;20223;-79
2021/03/15 05:16:40;;;;;;;19.75;10.75;;;6.20;99.90;;;;;;4868509;29;20209;-78
2021/03/15 05:19:09;;;;;;;18.17;10.65;;;6.10;99.90;;;;;;4867516;29;20175;-78
2021/03/15 05:21:38;;;;;;;14.38;9.98;;;6.00;99.90;;;;;;4868296;29;20611;-78
2021/03/15 05:24:05;;;;;;;14.70;10.68;;;6.10;99.90;;;;;;4859840;29;20250;-78
2021/03/15 05:26:35;;;;;;;10.55;8.05;;;6.10;99.90;;;;;;4874983;29;20616;-78
2021/03/15 05:29:07;;;;;;;11.90;9.07;;;6.10;99.90;;;;;;4874260;29;20672;-78
2021/03/15 05:31:37;;;;;;;9.10;7.38;;;6.00;99.90;;;;;;4872635;29;20931;-78
2021/03/15 05:34:06;;;;;;;9.45;6.35;;;6.00;99.90;;;;;;4862047;29;20214;-78
2021/03/15 05:36:34;;;;;;;8.68;6.57;;;6.00;99.90;;;;;;4859873;29;20199;-78
2021/03/15 05:39:08;;;;;;;8.05;6.25;;;5.90;99.90;;;;;;4872055;29;20630;-78
2021/03/15 05:42:04;;;;;;;6.80;5.40;;;5.90;99.90;;;;;;4862361;29;20202;-78
2021/03/15 05:45:15;;;;;;;6.07;4.80;;;5.90;99.90;;;;;;4863782;29;20221;-78
2021/03/15 05:48:03;;;;;;;6.55;4.82;;;5.90;99.90;;;;;;4837276;29;20226;-78
2021/03/15 05:50:52;;;;;;;8.18;5.20;;;5.90;99.90;;;;;;4864835;29;20270;-78
2021/03/15 05:53:27;;;;;;;6.57;5.10;;;5.90;99.90;;;;;;4859789;29;20233;-79
2021/03/15 05:56:15;;;;;;;7.00;5.43;;;5.90;99.90;;;;;;4857198;29;20267;-78
2021/03/15 05:59:03;;;;;;;9.50;5.65;;;5.90;99.90;;;;;;4871471;29;20313;-78
2021/03/15 06:01:57;;;;;;;10.05;5.90;;;5.90;99.90;;;;;;4871241;29;20218;-78
2021/03/15 06:04:45;;;;;;;7.50;5.95;;;5.90;99.90;;;;;;4861750;29;20811;-78
2021/03/15 06:07:26;;;;;;;7.35;5.82;;;5.90;99.90;;;;;;4855978;29;20227;-78
2021/03/15 06:10:07;;;;;;;7.57;5.65;;;5.90;99.90;;;;;;4873366;29;20313;-78
2021/03/15 06:12:41;;;;;;;7.05;5.60;;;5.80;99.90;;;;;;4872613;29;20222;-78
2021/03/15 06:15:10;;;;;;;7.65;5.40;;;5.80;99.90;;;;;;4874133;29;20214;-78
2021/03/15 06:17:36;;;;;;;6.55;5.18;;;5.80;99.90;;;;;;4861059;29;20223;-78
2021/03/15 06:20:05;;;;;;;8.27;6.28;;;5.80;99.90;;;;;;4858400;29;20198;-78
2021/03/15 06:22:32;;;;;;;7.80;5.25;;;5.70;99.90;;;;;;4855155;29;20639;-78
2021/03/15 06:25:01;;;;;;;7.25;5.65;;;5.80;99.90;;;;;;4855736;29;20244;-78
2021/03/15 06:27:29;;;;;;;7.68;6.00;;;5.70;99.90;;;;;;4847844;29;20259;-78
2021/03/15 06:29:56;;;;;;;7.50;5.32;;;5.70;99.90;;;;;;4865988;29;20183;-77
2021/03/15 06:32:26;;;;;;;6.18;5.07;;;5.80;99.90;;;;;;4867429;29;20639;-78
2021/03/15 06:34:55;;;;;;;5.30;4.45;;;5.90;99.90;;;;;;4866111;29;20697;-78
2021/03/15 06:37:23;;;;;;;6.57;5.20;;;5.90;99.90;;;;;;4860855;29;20226;-77
2021/03/15 06:39:50;;;;;;;8.55;4.60;;;5.80;99.90;;;;;;4865462;29;20277;-78
2021/03/15 06:42:19;;;;;;;8.68;6.30;;;5.90;99.90;;;;;;4872266;29;20879;-77
2021/03/15 06:44:46;;;;;;;6.57;5.78;;;5.90;99.90;;;;;;4857123;29;20724;-78
2021/03/15 06:47:14;;;;;;;7.78;5.53;;;5.90;99.90;;;;;;4856505;29;20263;-77
2021/03/15 06:49:41;;;;;;;7.70;5.35;;;5.90;99.90;;;;;;4873760;29;20210;-78
2021/03/15 06:52:09;;;;;;;6.57;5.07;;;5.90;99.90;;;;;;4861580;29;20705;-77
2021/03/15 06:54:36;;;;;;;6.35;4.75;;;5.90;99.90;;;;;;4866995;29;20241;-77
2021/03/15 06:57:21;;;;;;;9.32;5.45;;;5.90;99.90;;;;;;4866966;29;20230;-78
2021/03/15 06:59:52;;;;;;;6.93;5.03;;;5.90;99.90;;;;;;4855026;29;20281;-77
2021/03/15 07:02:29;;;;;;;10.05;5.50;;;5.90;99.90;;;;;;4860205;29;20235;-77
2021/03/15 07:05:13;;;;;;;6.47;5.10;;;6.00;99.90;;;;;;4858428;29;20224;-78
2021/03/15 07:07:52;;;;;;;7.93;5.50;;;6.00;99.90;;;;;;4869168;29;20233;-77
2021/03/15 07:10:21;;;;;;;7.93;5.90;;;6.00;99.90;;;;;;4855837;29;20191;-77
2021/03/15 07:12:48;;;;;;;10.13;6.25;;;6.00;99.90;;;;;;4856073;29;20635;-77
2021/03/15 07:15:21;;;;;;;8.23;5.60;;;6.00;99.90;;;;;;4857350;29;20218;-77
2021/03/15 07:17:51;;;;;;;9.45;5.85;;;6.00;99.90;;;;;;4858641;29;20230;-77
2021/03/15 07:20:26;;;;;;;8.38;6.10;;;6.00;99.90;;;;;;4872562;29;20186;-78
2021/03/15 07:22:52;;;;;;;9.57;6.05;;;5.90;99.90;;;;;;4872902;29;20237;-77
2021/03/15 07:25:19;;;;;;;8.25;5.78;;;6.00;99.90;;;;;;4860298;29;20211;-77
2021/03/15 07:27:55;;;;;;;10.75;6.22;;;6.00;99.90;;;;;;4857059;29;20234;-77
2021/03/15 07:30:40;;;;;;;8.88;5.35;;;6.00;99.90;;;;;;4843524;29;20207;-77
2021/03/15 07:33:24;;;;;;;8.25;6.43;;;6.10;99.90;;;;;;4858781;29;20275;-77
2021/03/15 07:35:53;;;;;;;9.63;5.60;;;6.10;99.90;;;;;;4871032;29;20215;-77
2021/03/15 07:38:34;;;;;;;7.57;5.93;;;6.00;99.90;;;;;;4869933;29;20693;-77
2021/03/15 07:41:15;;;;;;;10.98;6.00;;;6.10;99.90;;;;;;4876893;29;20229;-77
2021/03/15 07:43:43;;;;;;;11.55;7.00;;;6.20;99.90;;;;;;4861456;29;20223;-77
2021/03/15 07:46:29;;;;;;;10.57;6.32;;;6.30;99.90;;;;;;4845921;29;20673;-77
2021/03/15 07:49:00;;;;;;;8.25;6.43;;;6.40;99.90;;;;;;4860691;29;20246;-77
2021/03/15 07:51:37;;;;;;;8.40;6.20;;;6.50;99.90;;;;;;4862863;29;20752;-78
2021/03/15 07:54:24;;;;;;;8.93;6.15;;;6.60;99.90;;;;;;4859625;29;20294;-77
2021/03/15 07:57:27;;;;;;;8.45;6.38;;;6.60;99.90;;;;;;4858239;29;20248;-77
2021/03/15 07:59:58;;;;;;;8.55;6.78;;;6.70;99.90;;;;;;4803756;29;20233;-77
2021/03/15 08:02:29;;;;;;;9.25;6.40;;;6.80;99.90;;;;;;4860924;29;20222;-77
2021/03/15 08:04:57;;;;;;;9.15;6.13;;;6.90;99.90;;;;;;4873412;29;20255;-77
2021/03/15 08:07:29;;;;;;;10.77;7.22;;;6.90;99.90;;;;;;4846478;29;20645;-77
2021/03/15 08:09:59;;;;;;;9.60;6.97;;;7.10;99.90;;;;;;4844087;29;20281;-77
2021/03/15 08:12:34;;;;;;;10.80;7.18;;;7.20;99.90;;;;;;4866636;29;20291;-77
2021/03/15 08:15:12;;;;;;;11.10;7.50;;;7.30;99.90;;;;;;4845297;29;20243;-77
2021/03/15 08:17:48;;;;;;;9.93;7.25;;;7.40;99.90;;;;;;4863447;29;20224;-77
2021/03/15 08:20:16;;;;;;;10.63;7.25;;;7.30;99.90;;;;;;4877238;29;20182;-77
2021/03/15 08:22:48;;;;;;;9.70;6.13;;;7.20;99.90;;;;;;4870768;29;20278;-77
2021/03/15 08:25:19;;;;;;;8.98;6.38;;;7.10;99.90;;;;;;4864140;29;20217;-77
2021/03/15 08:27:52;;;;;;;12.55;7.93;;;7.10;99.90;;;;;;4866117;29;20225;-77
2021/03/15 08:30:28;;;;;;;10.55;7.95;;;7.20;99.90;;;;;;4860496;29;20554;-77
2021/03/15 08:32:56;;;;;;;13.35;6.70;;;7.30;99.90;;;;;;4865280;29;20227;-77
2021/03/15 08:35:23;;;;;;;9.65;7.05;;;7.40;99.90;;;;;;4862809;29;20215;-77
2021/03/15 08:38:09;;;;;;;11.50;7.18;;;7.40;99.90;;;;;;4859277;29;20303;-77
2021/03/15 08:40:44;;;;;;;6.70;5.55;;;7.40;99.90;;;;;;4867997;29;20206;-76
2021/03/15 08:43:17;;;;;;;13.32;6.93;;;7.40;99.90;;;;;;4857843;29;20447;-77
2021/03/15 08:45:54;;;;;;;7.80;5.47;;;7.30;99.90;;;;;;4844568;29;20242;-77
2021/03/15 08:48:33;;;;;;;7.10;4.97;;;7.30;99.90;;;;;;4876642;29;20234;-77
2021/03/15 08:51:01;;;;;;;8.10;6.18;;;7.20;99.90;;;;;;4852631;29;20322;-77
2021/03/15 08:53:40;;;;;;;10.40;6.43;;;7.20;99.90;;;;;;4841135;29;20251;-77
2021/03/15 08:56:14;;;;;;;8.43;5.93;;;7.20;99.90;;;;;;4841148;29;20653;-77
2021/03/15 08:58:42;;;;;;;7.10;6.25;;;7.20;99.90;;;;;;4852321;29;20230;-77
2021/03/15 09:01:10;;;;;;;11.57;6.07;;;7.20;99.90;;;;;;4859940;29;20199;-77
2021/03/15 09:04:04;;;;;;;9.10;6.93;;;7.20;99.90;;;;;;4858780;29;20223;-77
2021/03/15 09:06:37;;;;;;;12.77;6.43;;;7.40;99.90;;;;;;4853110;29;20278;-77
2021/03/15 09:09:05;;;;;;;10.55;7.82;;;7.40;99.90;;;;;;4868639;29;20194;-76
2021/03/15 09:11:44;;;;;;;12.77;6.25;;;7.30;99.90;;;;;;4858543;29;20222;-77
2021/03/15 09:14:17;;;;;;;10.48;7.18;;;7.30;99.90;;;;;;4861035;29;20754;-77
2021/03/15 09:16:49;;;;;;;9.57;6.00;;;7.30;99.90;;;;;;4865180;29;20317;-77
2021/03/15 09:19:27;;;;;;;6.95;5.90;;;7.30;99.90;;;;;;4868418;29;20278;-77
2021/03/15 09:21:55;;;;;;;7.95;5.03;;;7.30;99.90;;;;;;4858902;29;20246;-77
2021/03/15 09:25:01;;;;;;;7.25;5.18;;;7.20;99.90;;;;;;4869179;29;20211;-77
2021/03/15 09:27:33;;;;;;;7.47;4.53;;;7.40;99.90;;;;;;4776274;29;20643;-76
2021/03/15 09:30:10;;;;;;;7.18;4.75;;;7.50;99.90;;;;;;4767353;30;20190;-77
2021/03/15 09:32:45;;;;;;;6.63;5.50;;;7.50;99.90;;;;;;4836348;29;20238;-77
2021/03/15 09:35:15;;;;;;;5.50;5.00;;;7.50;99.90;;;;;;4862216;29;20218;-77
2021/03/15 09:37:49;;;;;;;6.60;4.50;;;7.50;99.90;;;;;;4863728;29;20223;-77
2021/03/15 09:40:20;;;;;;;9.57;4.07;;;7.40;99.90;;;;;;4857907;29;20199;-76
2021/03/15 09:42:47;;;;;;;6.28;4.80;;;7.40;99.90;;;;;;4858070;29;20231;-76
2021/03/15 09:45:30;;;;;;;5.57;4.85;;;7.40;99.90;;;;;;4858762;29;20705;-76
2021/03/15 09:48:02;;;;;;;5.72;4.28;;;7.40;99.90;;;;;;4854827;29;20286;-76
2021/03/15 09:50:35;;;;;;;8.85;4.70;;;7.40;99.90;;;;;;4864097;29;20282;-77
2021/03/15 09:53:13;;;;;;;7.60;4.70;;;7.40;99.90;;;;;;4851407;29;20464;-76
2021/03/15 09:56:12;;;;;;;11.23;4.20;;;7.50;99.90;;;;;;4860263;29;20313;-76
2021/03/15 09:58:46;;;;;;;7.28;4.22;;;7.50;99.90;;;;;;4865973;29;20218;-76
2021/03/15 10:01:20;;;;;;;9.90;4.80;;;7.50;99.90;;;;;;4868014;29;20535;-76
2021/03/15 10:04:18;;;;;;;6.55;5.30;;;7.50;99.90;;;;;;4860119;29;20223;-76
2021/03/15 10:07:11;;;;;;;13.07;4.65;;;7.40;99.90;;;;;;4867082;29;20597;-77
2021/03/15 10:10:06;;;;;;;11.55;5.25;;;7.30;99.90;;;;;;4866049;29;20266;-76
2021/03/15 10:13:06;;;;;;;12.20;5.10;;;7.30;99.90;;;;;;4859202;29;20303;-76
2021/03/15 10:15:53;;;;;;;12.00;5.22;;;7.40;99.90;;;;;;4864179;29;20241;-76
2021/03/15 10:18:48;;;;;;;6.75;4.63;;;7.70;99.90;;;;;;4873609;29;20226;-76
2021/03/15 10:21:25;;;;;;;10.45;4.72;;;8.00;99.90;;;;;;4868333;29;20198;-76
2021/03/15 10:23:57;;;;;;;10.27;4.75;;;8.00;99.90;;;;;;4855929;29;20218;-77
2021/03/15 10:26:24;;;;;;;8.93;5.40;;;7.90;99.90;;;;;;4860432;29;20273;-76
2021/03/15 10:28:59;;;;;;;8.23;4.25;;;7.80;99.90;;;;;;4856378;29;20214;-77
2021/03/15 10:31:40;;;;;;;8.43;4.75;;;7.80;99.90;;;;;;4853603;29;20211;-77
2021/03/15 10:34:08;;;;;;;7.25;4.63;;;7.60;99.90;;;;;;4858863;29;20210;-77
2021/03/15 10:36:57;;;;;;;12.13;4.07;;;7.50;99.90;;;;;;4863089;29;21561;-77
2021/03/15 10:39:33;;;;;;;6.05;3.70;;;7.60;99.90;;;;;;4858167;29;20194;-77
2021/03/15 10:42:00;;;;;;;13.68;5.22;;;7.50;99.90;;;;;;4855965;29;20226;-77
2021/03/15 10:44:36;;;;;;;11.05;5.05;;;7.70;99.90;;;;;;4866494;29;20714;-76
2021/03/15 10:47:11;;;;;;;7.82;5.10;;;7.80;99.90;;;;;;4860463;29;20223;-76
2021/03/15 10:49:46;;;;;;;6.25;5.28;;;8.00;99.90;;;;;;4864541;29;20225;-77
2021/03/15 10:52:39;;;;;;;7.22;4.80;;;8.20;99.90;;;;;;4874774;29;20785;-76
2021/03/15 10:55:23;;;;;;;6.82;3.80;;;8.30;99.90;;;;;;4867802;29;20222;-77
2021/03/15 10:58:00;;;;;;;6.32;2.67;;;8.20;99.90;;;;;;4860670;29;20589;-77
2021/03/15 11:00:32;;;;;;;5.38;2.92;;;8.20;99.90;;;;;;4870719;29;20638;-77
2021/03/15 11:03:00;;;;;;;4.15;2.70;;;8.10;99.90;;;;;;4863794;29;20634;-76
2021/03/15 11:05:31;;;;;;;9.40;3.67;;;7.90;99.90;;;;;;4867473;29;20772;-77
2021/03/15 11:08:02;;;;;;;8.95;3.85;;;7.90;99.90;;;;;;4860007;29;20226;-77
2021/03/15 11:10:34;;;;;;;7.75;3.10;;;7.90;99.90;;;;;;4876261;29;20198;-77
2021/03/15 11:13:24;;;;;;;7.60;3.13;;;7.90;99.90;;;;;;4844379;29;20744;-77
2021/03/15 11:16:35;;;;;;;6.80;3.00;;;8.00;99.90;;;;;;4857812;29;20623;-77
2021/03/15 11:19:03;;;;;;;7.78;3.40;;;8.20;99.90;;;;;;4847695;29;20207;-77
2021/03/15 11:21:39;;;;;;;6.43;4.30;;;8.30;99.90;;;;;;4857110;29;20639;-77
2021/03/15 11:24:12;;;;;;;7.78;3.50;;;8.20;99.90;;;;;;4871556;29;20198;-77
2021/03/15 11:26:59;;;;;;;16.98;3.70;;;8.30;99.90;;;;;;4857715;29;20312;-77
2021/03/15 11:29:38;;;;;;;5.47;3.10;;;8.10;99.90;;;;;;4850951;29;20659;-79
2021/03/15 11:32:30;;;;;;;5.85;2.45;;;7.70;99.90;;;;;;4860603;29;20721;-79
2021/03/15 11:35:04;;;;;;;6.00;2.15;;;7.50;99.90;;;;;;4851342;29;20230;-79
2021/03/15 11:37:51;;;;;;;3.95;1.85;;;7.30;99.90;;;;;;4865744;29;20218;-79
2021/03/15 11:40:32;;;;;;;3.90;1.75;;;7.10;99.90;;;;;;4865932;29;20202;-78
2021/03/15 11:43:00;;;;;;;2.85;1.65;;;7.00;99.90;;;;;;4851267;29;20225;-78
2021/03/15 11:45:27;;;;;;;4.30;2.08;;;7.00;99.90;;;;;;4871242;29;20215;-78
2021/03/15 11:47:55;;;;;;;2.00;1.60;;;7.20;99.90;;;;;;4873172;29;20227;-78
2021/03/15 11:50:42;;;;;;;2.25;1.05;;;7.40;99.90;;;;;;4850251;29;20227;-78
2021/03/15 11:53:19;;;;;;;6.10;1.30;;;7.60;99.90;;;;;;4855924;29;20235;-78
2021/03/15 11:55:47;;;;;;;5.03;1.90;;;7.80;99.90;;;;;;4864353;29;20210;-77
2021/03/15 11:58:22;;;;;;;3.35;1.95;;;7.90;99.90;;;;;;4864634;29;20606;-78
2021/03/15 12:00:53;;;;;;;3.83;1.65;;;8.00;99.90;;;;;;4843642;29;20195;-78
2021/03/15 12:03:28;;;;;;;7.80;2.03;;;7.90;99.90;;;;;;4860403;29;20222;-77
2021/03/15 12:06:00;;;;;;;6.72;2.05;;;8.00;99.90;;;;;;4873602;29;20237;-78
2021/03/15 12:08:59;;;;;;;5.78;1.88;;;8.10;99.90;;;;;;4858805;29;20211;-77
2021/03/15 12:11:28;;;;;;;5.32;2.15;;;8.30;99.90;;;;;;4859253;29;20333;-78
2021/03/15 12:13:55;;;;;;;3.72;1.90;;;8.30;99.90;;;;;;4860264;29;20246;-77
2021/03/15 12:16:23;;;;;;;7.50;2.08;;;8.40;99.90;;;;;;4854362;29;20622;-77
2021/03/15 12:18:56;;;;;;;3.60;2.22;;;8.50;99.90;;;;;;4861354;29;20426;-77
2021/03/15 12:21:25;;;;;;;6.70;2.75;;;8.50;99.90;;;;;;4857863;29;20674;-77
2021/03/15 12:24:07;;;;;;;8.15;3.78;;;8.60;99.90;;;;;;4846881;29;20223;-77
2021/03/15 12:26:38;;;;;;;6.13;2.28;;;8.60;99.90;;;;;;4859221;29;20234;-77
2021/03/15 12:29:09;;;;;;;4.43;2.67;;;8.60;99.90;;;;;;4869783;29;20198;-77
2021/03/15 12:31:46;;;;;;;7.88;2.22;;;8.70;99.90;;;;;;4860487;29;20286;-77
2021/03/15 12:34:15;;;;;;;5.30;1.80;;;8.80;99.90;;;;;;4875387;29;20222;-77
2021/03/15 12:36:44;;;;;;;2.30;1.48;;;8.70;99.90;;;;;;4844149;29;20223;-77
2021/03/15 12:39:11;;;;;;;4.65;1.55;;;8.70;99.90;;;;;;4856713;29;20287;-76
2021/03/15 12:41:46;;;;;;;3.33;2.05;;;8.80;99.90;;;;;;4871572;29;20232;-77
2021/03/15 12:44:13;;;;;;;3.47;1.80;;;8.90;99.90;;;;;;4861089;29;20719;-77
2021/03/15 12:46:44;;;;;;;7.60;1.85;;;8.90;99.90;;;;;;4873241;29;20190;-77
2021/03/15 12:49:22;;;;;;;6.55;2.70;;;8.90;99.90;;;;;;4860873;29;20207;-77
2021/03/15 12:51:49;;;;;;;4.20;1.90;;;9.00;99.90;;;;;;4861713;29;20305;-77
2021/03/15 12:54:20;;;;;;;6.25;2.40;;;9.10;99.90;;;;;;4874633;29;20214;-77
2021/03/15 12:56:58;;;;;;;5.15;2.60;;;9.20;99.90;;;;;;4872819;29;20233;-77
2021/03/15 12:59:35;;;;;;;5.50;2.15;;;9.10;99.90;;;;;;4855769;29;20309;-78
2021/03/15 13:02:04;;;;;;;3.85;1.90;;;8.90;99.90;;;;;;4874641;29;20294;-80
2021/03/15 13:04:31;;;;;;;3.40;1.55;;;8.50;99.90;;;;;;4869112;29;20203;-80
2021/03/15 13:07:00;;;;;;;2.10;1.10;;;8.30;99.90;;;;;;4862682;29;20235;-79
2021/03/15 13:09:49;;;;;;;2.17;1.20;;;8.00;99.90;;;;;;4847458;29;20282;-78
2021/03/15 13:12:31;;;;;;;3.45;1.02;;;7.90;99.90;;;;;;4826536;29;20639;-78
2021/03/15 13:15:04;;;;;;;3.47;1.35;;;7.80;99.90;;;;;;4856495;29;20211;-78
2021/03/15 13:17:49;;;;;;;3.90;1.23;;;7.80;99.90;;;;;;4866975;29;20234;-78
2021/03/15 13:20:20;;;;;;;2.95;1.80;;;7.90;99.90;;;;;;4857438;29;20219;-78
2021/03/15 13:22:55;;;;;;;1.95;1.13;;;8.10;99.90;;;;;;4841209;29;20606;-78
2021/03/15 13:25:39;;;;;;;3.70;1.50;;;8.20;99.90;;;;;;4839962;29;20346;-78
2021/03/15 13:28:10;;;;;;;4.50;1.45;;;8.30;99.90;;;;;;4854986;29;20226;-78
2021/03/15 13:30:41;;;;;;;3.03;1.10;;;8.30;99.90;;;;;;4855811;29;20229;-77